createdAt,value
2022-08-21T00:01:20.781Z,13.80
2022-08-21T00:03:50.734Z,13.43
2022-08-21T00:06:21.660Z,13.03
2022-08-21T00:08:50.605Z,12.33
2022-08-21T00:11:20.298Z,14.70
2022-08-21T00:13:49.726Z,13.90
2022-08-21T00:16:18.797Z,14.10
2022-08-21T00:18:48.233Z,14.23
2022-08-21T00:21:18.125Z,13.33
2022-08-21T00:23:49.302Z,15.57
2022-08-21T00:26:18.720Z,14.57
2022-08-21T00:28:49.791Z,15.70
2022-08-21T00:31:19.906Z,15.90
2022-08-21T00:33:48.758Z,14.87
2022-08-21T00:36:18.591Z,14.63
2022-08-21T00:38:49.386Z,14.73
2022-08-21T00:41:35.808Z,13.93
2022-08-21T00:44:09.513Z,14.63
2022-08-21T00:46:39.555Z,14.23
2022-08-21T00:49:10.410Z,15.63
2022-08-21T00:51:48.058Z,14.90
2022-08-21T00:54:20.597Z,15.40
2022-08-21T00:56:55.213Z,14.40
2022-08-21T00:59:25.463Z,15.67
2022-08-21T01:01:54.451Z,15.20
2022-08-21T01:04:25.740Z,16.23
2022-08-21T01:06:55.995Z,15.73
2022-08-21T01:09:26.770Z,14.10
2022-08-21T01:11:56.170Z,13.30
2022-08-21T01:14:25.699Z,12.53
2022-08-21T01:16:55.682Z,13.07
2022-08-21T01:19:25.611Z,13.07
2022-08-21T01:21:56.390Z,12.23
2022-08-21T01:24:25.657Z,12.07
2022-08-21T01:26:55.691Z,12.67
2022-08-21T01:29:32.550Z,12.90
2022-08-21T01:32:07.556Z,12.63
2022-08-21T01:34:40.246Z,12.87
2022-08-21T01:37:11.283Z,13.23
2022-08-21T01:39:40.495Z,12.03
2022-08-21T01:42:10.178Z,13.60
2022-08-21T01:44:39.135Z,12.83
2022-08-21T01:47:11.199Z,13.13
2022-08-21T01:49:41.549Z,13.83
2022-08-21T01:52:13.175Z,13.20
2022-08-21T01:54:42.633Z,12.80
2022-08-21T01:57:13.117Z,13.40
2022-08-21T01:59:42.181Z,12.50
2022-08-21T02:02:11.337Z,11.60
2022-08-21T02:04:40.962Z,11.13
2022-08-21T02:07:11.189Z,10.93
2022-08-21T02:09:43.004Z,10.47
2022-08-21T02:12:12.394Z,11.23
2022-08-21T02:14:41.376Z,11.23
2022-08-21T02:17:10.298Z,11.50
2022-08-21T02:19:40.637Z,12.30
2022-08-21T02:22:12.163Z,11.57
2022-08-21T02:24:54.027Z,12.37
2022-08-21T02:27:27.379Z,12.60
2022-08-21T02:29:59.091Z,12.93
2022-08-21T02:32:28.442Z,13.63
2022-08-21T02:34:57.761Z,12.47
2022-08-21T02:37:27.999Z,13.97
2022-08-21T02:39:57.873Z,14.33
2022-08-21T02:42:27.268Z,14.47
2022-08-21T02:44:56.320Z,14.33
2022-08-21T02:47:25.563Z,14.27
2022-08-21T02:49:54.863Z,14.40
2022-08-21T02:52:25.031Z,13.83
2022-08-21T02:54:55.290Z,15.60
2022-08-21T02:57:24.756Z,15.23
2022-08-21T02:59:54.186Z,13.63
2022-08-21T03:02:23.458Z,15.03
2022-08-21T03:04:55.635Z,14.73
2022-08-21T03:07:24.938Z,14.90
2022-08-21T03:09:56.155Z,14.70
2022-08-21T03:12:25.181Z,15.37
2022-08-21T03:14:57.641Z,15.90
2022-08-21T03:17:29.906Z,16.03
2022-08-21T03:20:00.463Z,16.73
2022-08-21T03:22:30.871Z,16.50
2022-08-21T03:25:02.191Z,15.63
2022-08-21T03:27:36.091Z,17.23
2022-08-21T03:30:10.711Z,17.23
2022-08-21T03:32:42.119Z,15.57
2022-08-21T03:35:11.525Z,17.17
2022-08-21T03:37:41.120Z,17.30
2022-08-21T03:40:14.391Z,16.37
2022-08-21T03:42:43.493Z,16.33
2022-08-21T03:45:12.798Z,17.83
2022-08-21T03:47:51.932Z,18.53
2022-08-21T03:50:21.651Z,17.57
2022-08-21T03:52:51.551Z,17.73
2022-08-21T03:55:21.986Z,18.20
2022-08-21T03:57:51.088Z,18.30
2022-08-21T04:00:21.313Z,16.40
2022-08-21T04:02:50.511Z,17.87
2022-08-21T04:05:28.190Z,17.80
2022-08-21T04:07:59.882Z,16.80
2022-08-21T04:10:32.972Z,16.83
2022-08-21T04:13:03.592Z,17.47
2022-08-21T04:15:33.599Z,17.53
2022-08-21T04:18:02.845Z,19.73
2022-08-21T04:20:32.739Z,18.27
2022-08-21T04:23:02.377Z,19.27
2022-08-21T04:25:32.856Z,17.83
2022-08-21T04:28:03.084Z,19.30
2022-08-21T04:30:32.890Z,19.67
2022-08-21T04:33:01.866Z,19.93
2022-08-21T04:35:31.182Z,18.47
2022-08-21T04:38:00.131Z,20.97
2022-08-21T04:40:30.712Z,19.00
2022-08-21T04:43:05.454Z,17.93
2022-08-21T04:45:37.349Z,18.10
2022-08-21T04:48:13.343Z,19.27
2022-08-21T04:50:52.911Z,18.53
2022-08-21T04:53:53.244Z,19.30
2022-08-21T04:56:33.784Z,17.43
2022-08-21T04:59:09.324Z,17.97
2022-08-21T05:01:41.170Z,18.43
2022-08-21T05:04:14.824Z,18.13
2022-08-21T05:06:47.570Z,18.07
2022-08-21T05:09:19.094Z,16.93
2022-08-21T05:11:49.011Z,17.50
2022-08-21T05:14:20.385Z,16.27
2022-08-21T05:16:49.460Z,16.10
2022-08-21T05:19:18.267Z,15.90
2022-08-21T05:21:48.943Z,15.80
2022-08-21T05:24:18.740Z,15.23
2022-08-21T05:26:48.004Z,15.83
2022-08-21T05:29:20.203Z,14.77
2022-08-21T05:31:50.122Z,17.20
2022-08-21T05:34:21.675Z,15.53
2022-08-21T05:36:50.531Z,15.67
2022-08-21T05:39:19.552Z,15.73
2022-08-21T05:41:48.714Z,15.23
2022-08-21T05:44:18.947Z,15.57
2022-08-21T05:46:49.288Z,16.40
2022-08-21T05:49:18.162Z,14.73
2022-08-21T05:51:47.088Z,14.47
2022-08-21T05:54:15.833Z,15.00
2022-08-21T05:56:45.891Z,14.90
2022-08-21T05:59:15.287Z,14.87
2022-08-21T06:01:46.271Z,14.63
2022-08-21T06:04:17.367Z,15.00
2022-08-21T06:06:47.904Z,15.03
2022-08-21T06:09:17.863Z,14.90
2022-08-21T06:11:47.265Z,14.53
2022-08-21T06:14:17.391Z,15.33
2022-08-21T06:16:48.096Z,14.17
2022-08-21T06:19:17.373Z,13.93
2022-08-21T06:21:46.560Z,14.03
2022-08-21T06:24:15.556Z,15.23
2022-08-21T06:26:44.531Z,14.13
2022-08-21T06:29:17.373Z,14.30
2022-08-21T06:31:49.202Z,15.23
2022-08-21T06:34:19.286Z,14.60
2022-08-21T06:36:48.235Z,15.07
2022-08-21T06:39:25.365Z,15.93
2022-08-21T06:42:00.779Z,13.50
2022-08-21T06:44:32.808Z,14.60
2022-08-21T06:47:02.998Z,14.13
2022-08-21T06:49:31.783Z,14.93
2022-08-21T06:52:02.232Z,15.33
2022-08-21T06:54:31.603Z,14.90
2022-08-21T06:57:00.650Z,15.83
2022-08-21T06:59:29.637Z,15.43
2022-08-21T07:01:58.614Z,15.50
2022-08-21T07:04:29.082Z,15.40
2022-08-21T07:06:58.153Z,15.07
2022-08-21T07:09:27.171Z,16.33
2022-08-21T07:11:58.628Z,15.93
2022-08-21T07:14:27.761Z,16.03
2022-08-21T07:16:56.523Z,15.47
2022-08-21T07:19:25.355Z,16.40
2022-08-21T07:22:00.500Z,16.20
2022-08-21T07:24:30.150Z,15.60
2022-08-21T07:26:59.070Z,15.43
2022-08-21T07:29:28.146Z,16.27
2022-08-21T07:31:57.136Z,15.70
2022-08-21T07:34:25.899Z,15.53
2022-08-21T07:36:56.079Z,15.30
2022-08-21T07:39:25.033Z,16.63
2022-08-21T07:41:54.155Z,16.90
2022-08-21T07:44:23.758Z,17.33
2022-08-21T07:46:53.199Z,16.67
2022-08-21T07:49:22.044Z,15.47
2022-08-21T07:51:50.878Z,17.50
2022-08-21T07:54:25.439Z,16.03
2022-08-21T07:57:03.444Z,18.53
2022-08-21T07:59:32.623Z,17.53
2022-08-21T08:02:05.066Z,16.23
2022-08-21T08:04:38.118Z,15.97
2022-08-21T08:07:38.232Z,15.03
2022-08-21T08:10:15.603Z,14.93
2022-08-21T08:12:48.856Z,15.63
2022-08-21T08:15:26.393Z,15.43
2022-08-21T08:18:08.382Z,15.63
2022-08-21T08:20:55.911Z,15.07
2022-08-21T08:23:29.509Z,12.17
2022-08-21T08:26:03.445Z,15.50
2022-08-21T08:28:39.682Z,14.50
2022-08-21T08:31:30.495Z,15.73
2022-08-21T08:34:25.652Z,15.17
2022-08-21T08:37:03.091Z,15.30
2022-08-21T08:39:39.759Z,14.60
2022-08-21T08:42:32.693Z,15.63
2022-08-21T08:45:35.154Z,14.63
2022-08-21T08:48:29.230Z,12.83
2022-08-21T08:51:18.503Z,14.17
2022-08-21T08:53:54.540Z,14.30
2022-08-21T08:56:29.886Z,14.37
2022-08-21T08:59:08.205Z,12.63
2022-08-21T09:01:39.197Z,13.53
2022-08-21T09:04:10.299Z,13.10
2022-08-21T09:06:56.910Z,13.33
2022-08-21T09:09:39.936Z,12.60
2022-08-21T09:12:17.239Z,12.13
2022-08-21T09:15:01.227Z,11.10
2022-08-21T09:17:41.299Z,12.03
2022-08-21T09:20:21.105Z,12.20
2022-08-21T09:23:02.857Z,10.73
2022-08-21T09:25:36.749Z,12.27
2022-08-21T09:28:13.947Z,11.00
2022-08-21T09:30:49.113Z,12.17
2022-08-21T09:33:18.477Z,8.87
2022-08-21T09:35:54.607Z,9.40
2022-08-21T09:38:29.264Z,9.50
2022-08-21T09:41:01.635Z,9.47
2022-08-21T09:43:31.070Z,9.53
2022-08-21T09:46:10.869Z,9.43
2022-08-21T09:48:43.175Z,9.13
2022-08-21T09:51:16.622Z,8.60
2022-08-21T09:53:51.022Z,8.37
2022-08-21T09:56:47.334Z,7.90
2022-08-21T09:59:24.711Z,7.97
2022-08-21T10:01:56.939Z,7.73
2022-08-21T10:04:32.098Z,8.50
2022-08-21T10:07:12.092Z,7.80
2022-08-21T10:09:41.915Z,7.97
2022-08-21T10:12:18.272Z,7.30
2022-08-21T10:14:56.712Z,6.33
2022-08-21T10:17:37.634Z,7.20
2022-08-21T10:20:12.558Z,6.00
2022-08-21T10:22:59.132Z,6.33
2022-08-21T10:25:37.533Z,6.47
2022-08-21T10:28:15.649Z,5.40
2022-08-21T10:30:52.686Z,6.47
2022-08-21T10:33:34.350Z,6.60
2022-08-21T10:36:15.119Z,5.70
2022-08-21T10:39:36.565Z,6.00
2022-08-21T10:42:16.374Z,5.40
2022-08-21T10:44:55.722Z,5.13
2022-08-21T10:47:32.591Z,5.03
2022-08-21T10:50:10.467Z,4.90
2022-08-21T10:53:06.000Z,5.10
2022-08-21T10:55:38.370Z,4.93
2022-08-21T10:58:12.503Z,5.70
2022-08-21T11:00:47.935Z,4.93
2022-08-21T11:03:23.652Z,4.87
2022-08-21T11:05:55.718Z,4.87
2022-08-21T11:08:30.815Z,4.77
2022-08-21T11:11:08.581Z,4.50
2022-08-21T11:13:42.641Z,4.17
2022-08-21T11:16:20.808Z,4.43
2022-08-21T11:18:53.602Z,6.17
2022-08-21T11:21:34.338Z,4.10
2022-08-21T11:24:10.918Z,4.13
2022-08-21T11:26:45.148Z,4.13
2022-08-21T11:29:21.946Z,4.30
2022-08-21T11:32:05.731Z,7.93
2022-08-21T11:34:47.563Z,3.80
2022-08-21T11:37:28.843Z,4.27
2022-08-21T11:40:05.133Z,3.93
2022-08-21T11:42:42.707Z,3.67
2022-08-21T11:45:21.639Z,4.93
2022-08-21T11:48:03.855Z,3.70
2022-08-21T11:50:36.074Z,3.80
2022-08-21T11:53:11.794Z,4.60
2022-08-21T11:55:45.887Z,3.73
2022-08-21T11:58:25.359Z,4.07
2022-08-21T12:00:58.114Z,3.80
2022-08-21T12:03:31.627Z,3.40
2022-08-21T12:06:04.025Z,3.17
2022-08-21T12:08:36.922Z,2.93
2022-08-21T12:11:08.916Z,3.40
2022-08-21T12:13:42.424Z,3.73
2022-08-21T12:16:16.000Z,4.53
2022-08-21T12:18:46.228Z,3.93
2022-08-21T12:21:24.051Z,4.10
2022-08-21T12:24:07.076Z,3.43
2022-08-21T12:26:49.767Z,3.90
2022-08-21T12:29:25.196Z,4.40
2022-08-21T12:31:59.132Z,5.77
2022-08-21T12:34:36.831Z,3.77
2022-08-21T12:37:16.767Z,3.90
2022-08-21T12:39:50.971Z,4.13
2022-08-21T12:42:24.586Z,3.57
2022-08-21T12:44:57.915Z,3.70
2022-08-21T12:47:45.214Z,4.27
2022-08-21T12:50:21.910Z,3.70
2022-08-21T12:52:59.940Z,3.70
2022-08-21T12:55:32.162Z,4.53
2022-08-21T12:58:02.289Z,4.00
2022-08-21T13:00:32.350Z,3.53
2022-08-21T13:03:02.654Z,3.33
2022-08-21T13:05:35.755Z,4.33
2022-08-21T13:08:07.491Z,3.03
2022-08-21T13:10:39.567Z,3.10
2022-08-21T13:13:14.405Z,3.00
2022-08-21T13:15:59.958Z,3.17
2022-08-21T13:18:34.934Z,2.80
2022-08-21T13:21:10.317Z,2.90
2022-08-21T13:23:39.576Z,3.10
2022-08-21T13:26:18.560Z,4.40
2022-08-21T13:28:49.183Z,3.17
2022-08-21T13:31:23.900Z,2.93
2022-08-21T13:33:59.371Z,3.43
2022-08-21T13:36:33.775Z,3.37
2022-08-21T13:39:05.914Z,2.90
2022-08-21T13:41:39.407Z,3.20
2022-08-21T13:44:20.622Z,2.87
2022-08-21T13:46:51.535Z,2.80
2022-08-21T13:49:25.192Z,2.80
2022-08-21T13:51:54.346Z,2.83
2022-08-21T13:54:28.517Z,3.10
2022-08-21T13:56:59.862Z,2.70
2022-08-21T13:59:31.490Z,2.50
2022-08-21T14:02:03.269Z,2.60
2022-08-21T14:04:37.949Z,2.90
2022-08-21T14:07:18.868Z,2.87
2022-08-21T14:09:48.650Z,2.40
2022-08-21T14:12:25.954Z,2.70
2022-08-21T14:14:56.841Z,2.60
2022-08-21T14:17:33.743Z,2.70
2022-08-21T14:20:03.394Z,2.90
2022-08-21T14:22:39.880Z,2.60
2022-08-21T14:25:13.037Z,2.70
2022-08-21T14:27:51.003Z,2.60
2022-08-21T14:30:21.922Z,2.97
2022-08-21T14:32:51.144Z,2.60
2022-08-21T14:35:23.798Z,3.00
2022-08-21T14:37:55.178Z,2.67
2022-08-21T14:40:26.428Z,2.47
2022-08-21T14:42:58.917Z,2.53
2022-08-21T14:45:30.083Z,2.67
2022-08-21T14:48:01.057Z,2.60
2022-08-21T14:50:30.381Z,2.60
2022-08-21T14:52:59.308Z,3.33
2022-08-21T14:55:28.713Z,2.87
2022-08-21T14:57:59.209Z,3.17
2022-08-21T15:00:35.702Z,2.90
2022-08-21T15:03:05.114Z,2.80
2022-08-21T15:05:34.434Z,2.80
2022-08-21T15:08:04.090Z,2.73
2022-08-21T15:10:35.759Z,2.63
2022-08-21T15:13:06.221Z,2.57
2022-08-21T15:15:41.564Z,2.40
2022-08-21T15:18:13.173Z,2.60
2022-08-21T15:20:42.607Z,2.73
2022-08-21T15:23:14.885Z,2.70
2022-08-21T15:25:46.022Z,2.57
2022-08-21T15:28:18.106Z,3.03
2022-08-21T15:30:47.826Z,2.70
2022-08-21T15:33:16.888Z,2.40
2022-08-21T15:35:47.372Z,2.93
2022-08-21T15:38:17.108Z,2.77
2022-08-21T15:40:51.964Z,2.70
2022-08-21T15:43:30.184Z,2.60
2022-08-21T15:46:01.610Z,2.77
2022-08-21T15:48:31.208Z,2.73
2022-08-21T15:51:00.556Z,2.60
2022-08-21T15:53:29.789Z,3.33
2022-08-21T15:55:58.968Z,2.60
2022-08-21T15:58:29.546Z,3.80
2022-08-21T16:01:01.512Z,2.60
2022-08-21T16:03:30.754Z,3.10
2022-08-21T16:05:59.556Z,2.60
2022-08-21T16:08:28.691Z,2.87
2022-08-21T16:10:58.017Z,2.50
2022-08-21T16:13:31.339Z,3.00
2022-08-21T16:16:01.041Z,3.07
2022-08-21T16:18:30.903Z,2.43
2022-08-21T16:20:59.877Z,2.43
2022-08-21T16:23:28.963Z,2.27
2022-08-21T16:26:00.279Z,2.70
2022-08-21T16:28:31.516Z,2.37
2022-08-21T16:31:00.728Z,2.67
2022-08-21T16:33:36.926Z,2.30
2022-08-21T16:36:07.811Z,2.57
2022-08-21T16:38:38.245Z,2.23
2022-08-21T16:41:10.017Z,2.27
2022-08-21T16:43:41.483Z,2.50
2022-08-21T16:46:12.343Z,2.40
2022-08-21T16:48:42.423Z,2.43
2022-08-21T16:51:11.670Z,8.30
2022-08-21T16:53:40.955Z,3.47
2022-08-21T16:56:10.822Z,2.80
2022-08-21T16:58:44.065Z,2.30
2022-08-21T17:01:15.999Z,2.30
2022-08-21T17:03:47.715Z,2.37
2022-08-21T17:06:17.686Z,2.23
2022-08-21T17:08:46.845Z,3.13
2022-08-21T17:11:36.621Z,2.50
2022-08-21T17:14:10.615Z,2.40
2022-08-21T17:16:40.686Z,2.70
2022-08-21T17:19:12.979Z,3.07
2022-08-21T17:21:42.656Z,3.60
2022-08-21T17:24:15.479Z,3.37
2022-08-21T17:26:45.459Z,3.30
2022-08-21T17:29:16.747Z,3.17
2022-08-21T17:31:47.031Z,3.63
2022-08-21T17:34:16.873Z,3.20
2022-08-21T17:36:46.202Z,4.20
2022-08-21T17:39:21.969Z,3.40
2022-08-21T17:41:57.753Z,3.17
2022-08-21T17:44:28.591Z,3.20
2022-08-21T17:46:57.968Z,3.30
2022-08-21T17:49:27.014Z,3.37
2022-08-21T17:51:56.151Z,2.80
2022-08-21T17:54:26.559Z,3.00
2022-08-21T17:56:57.075Z,3.40
2022-08-21T17:59:28.306Z,3.40
2022-08-21T18:02:01.613Z,3.30
2022-08-21T18:04:31.725Z,3.27
2022-08-21T18:07:00.842Z,3.63
2022-08-21T18:09:29.848Z,3.67
2022-08-21T18:12:00.865Z,3.60
2022-08-21T18:14:35.056Z,4.00
2022-08-21T18:17:08.192Z,3.50
2022-08-21T18:19:37.703Z,3.83
2022-08-21T18:22:18.234Z,3.57
2022-08-21T18:24:47.636Z,3.40
2022-08-21T18:27:17.028Z,3.43
2022-08-21T18:29:47.855Z,3.50
2022-08-21T18:32:30.445Z,3.60
2022-08-21T18:35:02.750Z,3.50
2022-08-21T18:37:32.302Z,3.23
2022-08-21T18:40:04.226Z,5.30
2022-08-21T18:42:38.867Z,3.20
2022-08-21T18:45:14.091Z,3.80
2022-08-21T18:47:46.199Z,3.60
2022-08-21T18:50:19.354Z,3.53
2022-08-21T18:52:52.766Z,4.07
2022-08-21T18:55:37.936Z,4.57
2022-08-21T18:58:10.873Z,3.37
2022-08-21T19:00:47.040Z,3.57
2022-08-21T19:03:23.732Z,3.97
2022-08-21T19:05:54.039Z,3.80
2022-08-21T19:08:27.255Z,3.60
2022-08-21T19:11:01.139Z,4.23
2022-08-21T19:13:30.888Z,4.37
2022-08-21T19:16:03.767Z,4.23
2022-08-21T19:18:35.389Z,3.70
2022-08-21T19:21:05.172Z,3.90
2022-08-21T19:23:35.219Z,3.57
2022-08-21T19:26:08.471Z,3.90
2022-08-21T19:28:39.830Z,3.60
2022-08-21T19:31:19.670Z,4.07
2022-08-21T19:36:45.521Z,4.27
2022-08-21T19:39:15.275Z,4.13
2022-08-21T19:41:47.178Z,4.13
2022-08-21T19:44:23.001Z,3.73
2022-08-21T19:46:55.168Z,4.63
2022-08-21T19:49:28.646Z,3.73
2022-08-21T19:51:58.200Z,4.37
2022-08-21T19:54:29.882Z,3.87
2022-08-21T19:57:03.680Z,3.70
2022-08-21T19:59:36.362Z,4.93
2022-08-21T20:02:07.407Z,4.20
2022-08-21T20:04:36.739Z,4.07
2022-08-21T20:07:08.218Z,3.97
2022-08-21T20:09:38.241Z,3.70
2022-08-21T20:12:12.411Z,5.13
2022-08-21T20:14:45.823Z,3.83
2022-08-21T20:17:18.921Z,4.10
2022-08-21T20:19:54.069Z,4.00
2022-08-21T20:22:24.838Z,4.37
2022-08-21T20:24:55.381Z,4.90
2022-08-21T20:27:26.534Z,5.40
2022-08-21T20:29:56.680Z,5.17
2022-08-21T20:32:27.151Z,5.10
2022-08-21T20:34:56.126Z,4.53
2022-08-21T20:37:36.645Z,5.50
2022-08-21T20:40:10.301Z,5.73
2022-08-21T20:42:41.443Z,5.10
2022-08-21T20:45:18.659Z,4.90
2022-08-21T20:47:59.978Z,5.93
2022-08-21T20:50:33.231Z,4.70
2022-08-21T20:53:12.008Z,4.67
2022-08-21T20:55:48.224Z,4.70
2022-08-21T20:58:29.577Z,5.47
2022-08-21T21:01:02.119Z,4.67
2022-08-21T21:03:36.984Z,4.60
2022-08-21T21:06:10.234Z,5.93
2022-08-21T21:08:46.862Z,5.37
2022-08-21T21:11:22.319Z,4.67
2022-08-21T21:13:56.690Z,5.67
2022-08-21T21:16:31.555Z,4.63
2022-08-21T21:19:07.254Z,5.77
2022-08-21T21:21:51.671Z,4.93
2022-08-21T21:24:27.689Z,5.00
2022-08-21T21:27:02.447Z,6.23
2022-08-21T21:29:45.559Z,5.27
2022-08-21T21:35:07.727Z,4.90
2022-08-21T21:37:44.060Z,5.27
2022-08-21T21:40:31.937Z,5.30
2022-08-21T21:43:09.294Z,5.70
2022-08-21T21:46:00.941Z,5.63
2022-08-21T21:48:41.525Z,5.93
2022-08-21T21:51:21.886Z,5.80
2022-08-21T21:54:00.511Z,5.73
2022-08-21T21:56:40.683Z,6.40
2022-08-21T21:59:36.265Z,5.47
2022-08-21T22:02:16.156Z,5.47
2022-08-21T22:04:56.728Z,5.87
2022-08-21T22:07:36.423Z,5.40
2022-08-21T22:10:19.992Z,5.87
2022-08-21T22:13:11.165Z,5.80
2022-08-21T22:15:41.597Z,6.27
2022-08-21T22:18:15.981Z,7.40
2022-08-21T22:20:52.349Z,5.30
2022-08-21T22:23:27.456Z,5.47
2022-08-21T22:26:05.934Z,5.27
2022-08-21T22:28:40.197Z,5.93
2022-08-21T22:31:19.173Z,6.00
2022-08-21T22:34:18.205Z,5.60
2022-08-21T22:36:56.185Z,5.60
2022-08-21T22:39:37.810Z,6.10
2022-08-21T22:45:04.684Z,5.27
2022-08-21T22:47:37.527Z,5.73
2022-08-21T22:50:18.977Z,5.83
2022-08-21T22:52:51.762Z,6.07
2022-08-21T22:55:28.676Z,6.43
2022-08-21T22:58:06.789Z,6.53
2022-08-21T23:00:53.153Z,7.23
2022-08-21T23:03:31.917Z,9.47
2022-08-21T23:06:12.677Z,9.17
2022-08-21T23:08:44.103Z,7.93
2022-08-21T23:11:17.810Z,7.47
2022-08-21T23:13:49.579Z,7.80
2022-08-21T23:16:34.714Z,6.77
2022-08-21T23:19:19.694Z,6.40
2022-08-21T23:21:57.859Z,6.40
2022-08-21T23:24:46.733Z,6.13
2022-08-21T23:27:35.967Z,6.60
2022-08-21T23:30:11.051Z,5.67
2022-08-21T23:33:00.768Z,6.03
2022-08-21T23:35:51.127Z,6.10
2022-08-21T23:38:32.497Z,6.43
2022-08-21T23:41:11.382Z,9.20
2022-08-21T23:43:52.710Z,6.23
2022-08-21T23:46:41.008Z,6.60
2022-08-21T23:49:24.435Z,5.93
2022-08-21T23:52:10.912Z,6.37
2022-08-21T23:54:52.816Z,6.73
2022-08-21T23:57:36.363Z,6.60
